createdAt,value
2018-06-09T00:04:52.510Z,17.50
2018-06-09T00:07:21.108Z,17.40
2018-06-09T00:09:49.778Z,17.40
2018-06-09T00:12:18.470Z,17.30
2018-06-09T00:14:46.999Z,17.30
2018-06-09T00:17:15.760Z,17.20
2018-06-09T00:19:44.537Z,17.20
2018-06-09T00:22:13.328Z,17.10
2018-06-09T00:27:10.439Z,17.10
2018-06-09T00:29:39.211Z,17.10
2018-06-09T00:32:07.962Z,17.10
2018-06-09T00:34:36.911Z,17.10
2018-06-09T00:37:05.646Z,17.10
2018-06-09T00:39:34.503Z,17.10
2018-06-09T00:42:03.188Z,17.20
2018-06-09T00:44:31.990Z,17.20
2018-06-09T00:47:00.679Z,17.30
2018-06-09T00:49:29.499Z,17.30
2018-06-09T00:51:58.298Z,17.40
2018-06-09T00:54:27.145Z,17.40
2018-06-09T00:56:55.948Z,17.50
2018-06-09T00:59:24.679Z,17.60
2018-06-09T01:01:53.471Z,17.60
2018-06-09T01:04:22.183Z,17.70
2018-06-09T01:06:50.989Z,17.70
2018-06-09T01:09:19.815Z,17.80
2018-06-09T01:11:48.519Z,17.70
2018-06-09T01:16:45.558Z,17.70
2018-06-09T01:19:14.219Z,17.60
2018-06-09T01:21:42.796Z,17.50
2018-06-09T01:24:11.507Z,17.50
2018-06-09T01:26:40.244Z,17.40
2018-06-09T01:29:08.917Z,17.30
2018-06-09T01:34:06.050Z,17.20
2018-06-09T01:36:34.869Z,17.20
2018-06-09T01:39:05.119Z,17.20
2018-06-09T01:41:33.904Z,17.10
2018-06-09T01:44:02.634Z,17.00
2018-06-09T01:46:31.401Z,17.00
2018-06-09T01:49:00.112Z,16.90
2018-06-09T01:51:28.714Z,16.90
2018-06-09T01:53:57.428Z,16.80
2018-06-09T02:01:22.743Z,16.70
2018-06-09T02:03:51.460Z,16.70
2018-06-09T02:06:20.114Z,16.60
2018-06-09T02:08:48.873Z,16.60
2018-06-09T02:11:17.532Z,16.60
2018-06-09T02:13:46.213Z,16.60
2018-06-09T02:16:14.877Z,16.60
2018-06-09T02:18:43.820Z,16.50
2018-06-09T02:21:12.513Z,16.50
2018-06-09T02:23:41.271Z,16.40
2018-06-09T02:28:38.417Z,16.30
2018-06-09T02:31:07.190Z,16.20
2018-06-09T02:33:35.829Z,16.20
2018-06-09T02:36:05.004Z,16.20
2018-06-09T02:38:33.584Z,16.10
2018-06-09T02:41:02.302Z,16.10
2018-06-09T02:43:31.006Z,16.10
2018-06-09T02:45:59.770Z,16.00
2018-06-09T02:48:28.486Z,15.90
2018-06-09T02:50:57.394Z,15.90
2018-06-09T02:53:26.164Z,15.90
2018-06-09T02:55:54.915Z,15.90
2018-06-09T02:58:23.600Z,15.90
2018-06-09T03:00:52.392Z,15.90
2018-06-09T03:03:20.964Z,15.90
2018-06-09T03:05:49.606Z,15.90
2018-06-09T03:08:18.465Z,15.90
2018-06-09T03:10:47.286Z,15.90
2018-06-09T03:13:15.955Z,15.90
2018-06-09T03:15:44.485Z,15.90
2018-06-09T03:18:13.069Z,15.90
2018-06-09T03:20:42.223Z,15.90
2018-06-09T03:23:11.107Z,15.90
2018-06-09T03:28:08.209Z,15.90
2018-06-09T03:30:36.917Z,15.90
2018-06-09T03:33:05.614Z,15.90
2018-06-09T03:35:34.301Z,15.90
2018-06-09T03:38:02.859Z,15.90
2018-06-09T03:40:31.563Z,15.90
2018-06-09T03:43:00.415Z,15.90
2018-06-09T03:45:29.151Z,16.00
2018-06-09T03:47:57.934Z,16.00
2018-06-09T03:50:26.700Z,16.00
2018-06-09T03:52:55.499Z,16.10
2018-06-09T03:55:24.127Z,16.20
2018-06-09T03:57:52.693Z,16.40
2018-06-09T04:00:21.375Z,16.50
2018-06-09T04:02:50.182Z,16.50
2018-06-09T04:05:18.895Z,16.60
2018-06-09T04:07:47.833Z,16.70
2018-06-09T04:10:16.482Z,16.90
2018-06-09T04:12:45.269Z,17.00
2018-06-09T04:15:14.959Z,17.00
2018-06-09T04:17:43.507Z,17.20
2018-06-09T04:20:12.143Z,17.30
2018-06-09T04:25:09.270Z,17.50
2018-06-09T04:27:37.970Z,17.50
2018-06-09T04:30:06.790Z,17.50
2018-06-09T04:35:03.949Z,17.60
2018-06-09T04:37:32.665Z,17.70
2018-06-09T04:40:01.449Z,17.80
2018-06-09T04:42:30.187Z,17.80
2018-06-09T04:44:58.875Z,17.90
2018-06-09T04:47:27.665Z,17.90
2018-06-09T04:49:56.584Z,17.90
2018-06-09T04:52:25.432Z,17.90
2018-06-09T04:54:54.205Z,18.00
2018-06-09T04:57:23.049Z,18.00
2018-06-09T04:59:51.786Z,18.10
2018-06-09T05:02:20.557Z,18.20
2018-06-09T05:04:49.343Z,18.20
2018-06-09T05:07:18.081Z,18.30
2018-06-09T05:09:47.156Z,18.30
2018-06-09T05:12:15.812Z,18.40
2018-06-09T05:17:12.778Z,18.50
2018-06-09T05:19:41.477Z,18.70
2018-06-09T05:22:10.136Z,18.80
2018-06-09T05:24:38.711Z,19.00
2018-06-09T05:27:07.382Z,19.10
2018-06-09T05:29:36.144Z,19.30
2018-06-09T05:32:04.987Z,19.40
2018-06-09T05:34:33.838Z,19.50
2018-06-09T05:37:02.601Z,19.60
2018-06-09T05:39:31.368Z,19.70
2018-06-09T05:44:28.478Z,19.90
2018-06-09T05:46:57.202Z,20.10
2018-06-09T05:49:26.052Z,20.30
2018-06-09T05:54:22.996Z,20.50
2018-06-09T05:56:51.897Z,20.70
2018-06-09T05:59:20.656Z,20.80
2018-06-09T06:04:18.184Z,21.00
2018-06-09T06:06:47.884Z,21.10
2018-06-09T06:09:16.840Z,21.20
2018-06-09T06:14:13.968Z,21.40
2018-06-09T06:16:42.591Z,21.60
2018-06-09T06:19:11.438Z,21.70
2018-06-09T06:21:40.212Z,21.80
2018-06-09T06:24:09.014Z,22.00
2018-06-09T06:26:37.899Z,22.20
2018-06-09T06:29:06.576Z,22.40
2018-06-09T06:31:35.320Z,22.50
2018-06-09T06:34:04.108Z,22.70
2018-06-09T06:36:33.070Z,22.80
2018-06-09T06:39:02.184Z,23.10
2018-06-09T06:41:30.876Z,23.20
2018-06-09T06:43:59.590Z,23.40
2018-06-09T06:46:28.166Z,23.60
2018-06-09T06:48:56.682Z,23.80
2018-06-09T06:51:25.150Z,23.90
2018-06-09T06:56:22.648Z,24.20
2018-06-09T06:58:51.456Z,24.40
2018-06-09T07:01:20.289Z,24.60
2018-06-09T07:03:49.150Z,24.70
2018-06-09T07:06:17.964Z,24.70
2018-06-09T07:08:46.437Z,24.80
2018-06-09T07:11:15.204Z,24.90
2018-06-09T07:13:43.719Z,25.00
2018-06-09T07:16:12.611Z,25.10
2018-06-09T07:18:41.305Z,25.20
2018-06-09T07:21:10.093Z,25.40
2018-06-09T07:23:38.770Z,25.50
2018-06-09T07:26:07.627Z,25.60
2018-06-09T07:28:36.574Z,25.80
2018-06-09T07:31:05.217Z,25.90
2018-06-09T07:33:33.970Z,26.00
2018-06-09T07:38:31.156Z,26.10
2018-06-09T07:40:59.871Z,26.20
2018-06-09T07:43:28.660Z,26.20
2018-06-09T07:45:57.527Z,26.30
2018-06-09T07:48:26.388Z,26.40
2018-06-09T07:53:23.439Z,26.60
2018-06-09T07:55:52.087Z,26.70
2018-06-09T07:58:20.847Z,26.80
2018-06-09T08:00:49.622Z,26.90
2018-06-09T08:05:46.755Z,27.10
2018-06-09T08:08:15.605Z,27.00
2018-06-09T08:10:44.268Z,27.00
2018-06-09T08:13:13.152Z,27.00
2018-06-09T08:15:41.898Z,27.10
2018-06-09T08:18:10.535Z,27.10
2018-06-09T08:20:39.410Z,26.90
2018-06-09T08:28:05.466Z,27.10
2018-06-09T08:30:34.587Z,27.20
2018-06-09T08:35:31.607Z,27.40
2018-06-09T08:38:00.392Z,27.50
2018-06-09T08:40:29.124Z,27.50
2018-06-09T08:42:58.169Z,27.70
2018-06-09T08:45:26.764Z,27.80
2018-06-09T08:47:55.642Z,27.70
2018-06-09T08:50:24.159Z,27.50
2018-06-09T08:52:53.078Z,27.20
2018-06-09T08:57:50.320Z,26.90
2018-06-09T09:00:18.901Z,26.60
2018-06-09T09:02:47.599Z,26.40
2018-06-09T09:05:16.271Z,26.20
2018-06-09T09:07:45.260Z,26.10
2018-06-09T09:10:13.966Z,25.90
2018-06-09T09:12:42.970Z,25.70
2018-06-09T09:15:11.869Z,25.60
2018-06-09T09:17:40.533Z,25.50
2018-06-09T09:20:09.273Z,25.40
2018-06-09T09:24:07.509Z,25.30
2018-06-09T09:26:36.251Z,25.30
2018-06-09T09:29:04.865Z,25.20
2018-06-09T09:31:33.745Z,25.10
2018-06-09T09:34:02.448Z,25.10
2018-06-09T09:36:31.441Z,25.10
2018-06-09T09:39:00.604Z,25.00
2018-06-09T09:43:57.864Z,24.50
2018-06-09T09:48:55.155Z,23.50
2018-06-09T09:51:24.106Z,23.20
2018-06-09T09:54:11.762Z,23.10
2018-06-09T09:59:41.921Z,22.40
2018-06-09T10:02:10.548Z,21.20
2018-06-09T10:04:39.093Z,20.20
2018-06-09T10:07:07.550Z,19.40
2018-06-09T10:09:36.065Z,18.90
2018-06-09T10:12:04.615Z,18.60
2018-06-09T10:14:33.614Z,18.40
2018-06-09T10:17:07.546Z,18.40
2018-06-09T10:19:48.499Z,18.50
2018-06-09T10:22:17.177Z,18.60
2018-06-09T10:27:39.655Z,18.30
2018-06-09T10:32:36.996Z,18.30
2018-06-09T10:35:05.539Z,18.30
2018-06-09T10:37:34.154Z,18.40
2018-06-09T13:12:03.937Z,19.40
2018-06-09T13:14:32.694Z,19.50
2018-06-09T13:17:01.476Z,19.50
2018-06-09T13:19:30.433Z,19.50
2018-06-09T13:21:59.182Z,19.50
2018-06-09T13:24:27.818Z,19.40
2018-06-09T13:26:57.066Z,19.40
2018-06-09T13:29:25.656Z,19.40
2018-06-09T13:31:54.337Z,19.40
2018-06-09T13:34:23.494Z,19.50
2018-06-09T13:36:52.408Z,19.50
2018-06-09T13:39:21.066Z,19.50
2018-06-09T13:41:49.962Z,19.50
2018-06-09T13:44:18.568Z,19.50
2018-06-09T13:46:47.594Z,19.60
2018-06-09T13:49:16.306Z,19.70
2018-06-09T13:51:45.056Z,19.80
2018-06-09T13:54:13.844Z,19.90
2018-06-09T13:56:42.905Z,20.10
2018-06-09T13:59:11.434Z,20.20
2018-06-09T14:01:40.052Z,20.30
2018-06-09T14:04:08.950Z,20.40
2018-06-09T14:06:37.709Z,20.40
2018-06-09T14:09:07.787Z,20.50
2018-06-09T14:11:36.348Z,20.60
2018-06-09T14:14:05.101Z,20.70
2018-06-09T14:16:33.843Z,20.80
2018-06-09T14:19:02.388Z,20.80
2018-06-09T14:21:31.540Z,20.90
2018-06-09T14:24:00.198Z,20.80
2018-06-09T14:26:28.921Z,20.80
2018-06-09T14:28:57.644Z,20.90
2018-06-09T14:31:26.150Z,21.00
2018-06-09T14:33:54.830Z,21.00
2018-06-09T14:36:23.449Z,21.10
2018-06-09T14:38:52.196Z,21.10
2018-06-09T14:41:20.838Z,21.20
2018-06-09T14:43:50.638Z,21.30
2018-06-09T14:46:19.389Z,21.30
2018-06-09T14:48:48.023Z,21.40
2018-06-09T14:51:17.209Z,21.40
2018-06-09T14:53:46.233Z,21.40
2018-06-09T14:56:14.980Z,21.50
2018-06-09T14:58:43.424Z,21.40
2018-06-09T15:01:12.036Z,21.40
2018-06-09T15:03:40.696Z,21.40
2018-06-09T15:06:09.947Z,21.40
2018-06-09T15:08:38.406Z,21.50
2018-06-09T15:11:07.073Z,21.50
2018-06-09T15:16:04.096Z,21.40
2018-06-09T15:18:33.016Z,21.40
2018-06-09T15:21:03.319Z,21.40
2018-06-09T15:23:32.193Z,21.40
2018-06-09T15:26:01.037Z,21.50
2018-06-09T15:28:29.900Z,21.60
2018-06-09T15:30:58.451Z,21.60
2018-06-09T15:33:27.381Z,21.70
2018-06-09T15:35:56.250Z,21.70
2018-06-09T15:38:24.816Z,21.80
2018-06-09T15:40:53.520Z,21.80
2018-06-09T15:43:21.989Z,21.80
2018-06-09T15:45:50.728Z,21.80
2018-06-09T15:50:47.739Z,21.80
2018-06-09T15:53:16.747Z,21.80
2018-06-09T15:55:45.506Z,21.80
2018-06-09T15:58:14.037Z,21.80
2018-06-09T16:00:42.882Z,21.90
2018-06-09T16:03:11.459Z,22.00
2018-06-09T16:05:39.984Z,22.10
2018-06-09T16:08:08.540Z,22.20
2018-06-09T16:10:37.128Z,22.40
2018-06-09T16:13:05.851Z,22.50
2018-06-09T16:15:36.042Z,22.60
2018-06-09T16:18:04.707Z,22.60
2018-06-09T16:20:33.529Z,22.70
2018-06-09T16:23:02.057Z,22.70
2018-06-09T16:25:30.763Z,22.70
2018-06-09T16:32:57.594Z,22.80
2018-06-09T16:35:26.387Z,22.80
2018-06-09T16:37:55.655Z,22.80
2018-06-09T16:40:24.592Z,22.80
2018-06-09T16:42:53.120Z,22.70
2018-06-09T16:45:21.781Z,22.70
2018-06-09T16:47:50.355Z,22.80
2018-06-09T16:52:47.816Z,22.80
2018-06-09T16:55:16.426Z,22.80
2018-06-09T16:57:44.870Z,22.80
2018-06-09T17:00:13.472Z,22.80
2018-06-09T17:02:42.033Z,22.70
2018-06-09T17:05:11.003Z,22.70
2018-06-09T17:07:39.734Z,22.60
2018-06-09T17:10:08.775Z,22.60
2018-06-09T17:12:37.541Z,22.60
2018-06-09T17:15:06.284Z,22.50
2018-06-09T17:17:35.479Z,22.50
2018-06-09T17:20:04.525Z,22.40
2018-06-09T17:22:33.423Z,22.30
2018-06-09T17:27:30.390Z,22.10
2018-06-09T17:29:58.898Z,22.10
2018-06-09T17:32:27.631Z,22.00
2018-06-09T17:34:56.268Z,21.80
2018-06-09T17:37:24.947Z,21.70
2018-06-09T17:39:53.695Z,21.60
2018-06-09T17:42:22.559Z,21.50
2018-06-09T17:44:51.349Z,21.30
2018-06-09T17:47:20.530Z,21.20
2018-06-09T17:49:49.273Z,21.00
2018-06-09T17:52:18.440Z,20.90
2018-06-09T17:54:47.207Z,20.80
2018-06-09T17:57:16.012Z,20.70
2018-06-09T17:59:44.735Z,20.70
2018-06-09T18:02:13.340Z,20.60
2018-06-09T18:04:42.770Z,20.50
2018-06-09T18:07:11.314Z,20.40
2018-06-09T18:09:40.262Z,20.40
2018-06-09T18:12:10.016Z,20.30
2018-06-09T18:14:38.589Z,20.20
2018-06-09T18:17:07.796Z,20.20
2018-06-09T18:19:36.544Z,20.10
2018-06-09T18:22:05.986Z,20.10
2018-06-09T18:24:34.609Z,20.00
2018-06-09T18:29:32.152Z,19.80
2018-06-09T18:32:00.866Z,19.70
2018-06-09T18:34:29.548Z,19.60
2018-06-09T18:36:58.463Z,19.60
2018-06-09T18:39:27.124Z,19.50
2018-06-09T18:41:56.202Z,19.50
2018-06-09T18:44:24.887Z,19.40
2018-06-09T18:47:10.651Z,19.40
2018-06-09T18:49:39.469Z,19.40
2018-06-09T18:52:08.308Z,19.30
2018-06-09T18:54:36.807Z,19.20
2018-06-09T18:57:05.468Z,19.20
2018-06-09T19:02:03.318Z,19.00
2018-06-09T19:04:32.300Z,19.00
2018-06-09T19:07:02.324Z,18.90
2018-06-09T19:09:31.495Z,18.90
2018-06-09T19:12:00.248Z,18.80
2018-06-09T19:14:29.460Z,18.70
2018-06-09T19:16:58.124Z,18.60
2018-06-09T19:21:56.018Z,18.50
2018-06-09T19:24:24.703Z,18.50
2018-06-09T19:26:54.573Z,18.40
2018-06-09T19:29:23.500Z,18.40
2018-06-09T19:31:52.792Z,18.30
2018-06-09T19:34:21.503Z,18.30
2018-06-09T19:39:18.352Z,18.10
2018-06-09T19:41:47.026Z,18.00
2018-06-09T19:44:15.710Z,18.00
2018-06-09T19:46:44.936Z,17.90
2018-06-09T19:49:13.662Z,17.90
2018-06-09T19:51:43.033Z,17.90
2018-06-09T19:54:11.840Z,17.90
2018-06-09T19:56:41.361Z,17.80
2018-06-09T19:59:10.032Z,17.80
2018-06-09T20:01:38.694Z,17.70
2018-06-09T20:04:07.257Z,17.60
2018-06-09T20:06:36.185Z,17.50
2018-06-09T20:09:07.637Z,17.40
2018-06-09T20:11:36.457Z,17.40
2018-06-09T20:14:05.253Z,17.30
2018-06-09T20:16:34.010Z,17.30
2018-06-09T20:19:02.875Z,17.20
2018-06-09T20:21:31.587Z,17.20
2018-06-09T20:26:29.195Z,17.20
2018-06-09T20:28:58.036Z,17.10
2018-06-09T20:31:26.787Z,17.10
2018-06-09T20:33:56.176Z,17.10
2018-06-09T20:36:24.791Z,17.00
2018-06-09T20:38:53.552Z,17.00
2018-06-09T20:41:22.100Z,17.00
2018-06-09T20:43:50.820Z,16.90
2018-06-09T20:46:19.523Z,16.90
2018-06-09T20:48:48.226Z,16.90
2018-06-09T20:51:16.923Z,16.90
2018-06-09T20:53:45.450Z,16.90
2018-06-09T20:56:14.014Z,16.80
2018-06-09T21:01:11.245Z,16.80
2018-06-09T21:03:39.879Z,16.80
2018-06-09T21:08:36.793Z,16.70
2018-06-09T21:11:05.864Z,16.70
2018-06-09T21:13:34.468Z,16.60
2018-06-09T21:16:03.240Z,16.60
2018-06-09T21:18:32.047Z,16.60
2018-06-09T21:21:00.792Z,16.70
2018-06-09T21:25:57.925Z,16.70
2018-06-09T21:28:27.884Z,16.70
2018-06-09T21:33:46.570Z,16.60
2018-06-09T21:36:19.264Z,16.50
2018-06-09T21:38:53.244Z,16.50
2018-06-09T21:41:22.836Z,16.50
2018-06-09T21:43:51.657Z,16.40
2018-06-09T21:46:25.577Z,16.40
2018-06-09T21:48:54.215Z,16.40
2018-06-09T21:51:22.920Z,16.40
2018-06-09T21:53:51.780Z,16.40
2018-06-09T21:56:20.356Z,16.40
2018-06-09T21:58:48.972Z,16.30
2018-06-09T22:01:18.037Z,16.20
2018-06-09T22:03:47.175Z,16.10
2018-06-09T22:06:15.681Z,16.00
2018-06-09T22:08:44.408Z,16.00
2018-06-09T22:11:13.632Z,15.90
2018-06-09T22:13:42.523Z,15.80
2018-06-09T22:16:11.589Z,15.80
2018-06-09T22:18:40.385Z,15.80
2018-06-09T22:21:08.964Z,15.80
2018-06-09T22:23:38.117Z,15.80
2018-06-09T22:26:11.258Z,15.70
2018-06-09T22:28:40.054Z,15.70
2018-06-09T22:31:08.789Z,15.70
2018-06-09T22:36:05.815Z,15.70
2018-06-09T22:38:34.502Z,15.60
2018-06-09T22:41:03.702Z,15.60
2018-06-09T22:43:32.273Z,15.60
2018-06-09T22:46:00.903Z,15.50
2018-06-09T22:48:29.389Z,15.50
2018-06-09T22:50:58.015Z,15.50
2018-06-09T22:53:26.599Z,15.40
2018-06-09T22:55:55.116Z,15.40
2018-06-09T22:58:24.180Z,15.40
2018-06-09T23:00:53.133Z,15.40
2018-06-09T23:03:21.622Z,15.40
2018-06-09T23:10:46.473Z,15.60
2018-06-09T23:13:15.089Z,15.60
2018-06-09T23:15:43.794Z,15.50
2018-06-09T23:18:12.553Z,15.50
2018-06-09T23:20:41.071Z,15.40
2018-06-09T23:23:09.997Z,15.40
2018-06-09T23:25:38.573Z,15.30
2018-06-09T23:28:07.432Z,15.30
2018-06-09T23:30:36.102Z,15.20
2018-06-09T23:33:04.603Z,15.10
2018-06-09T23:35:33.114Z,15.10
2018-06-09T23:38:01.866Z,15.00
2018-06-09T23:40:30.761Z,15.00
2018-06-09T23:42:59.320Z,14.90
2018-06-09T23:45:27.867Z,14.90
2018-06-09T23:47:56.469Z,14.90
2018-06-09T23:50:25.053Z,14.90
2018-06-09T23:52:53.622Z,15.00
2018-06-09T23:55:22.294Z,14.90
2018-06-09T23:57:50.920Z,14.90
